sensor_id;sensor_type;location;lat;lon;timestamp;pressure;altitude;pressure_sealevel;temperature;humidity
64933;BME280;51446;53.850;10.662;2022-11-23T00:00:22;99989.25;;;1.72;100.00
64933;BME280;51446;53.850;10.662;2022-11-23T00:02:57;100001.53;;;1.78;100.00
64933;BME280;51446;53.850;10.662;2022-11-23T00:05:23;100004.75;;;1.72;100.00
64933;BME280;51446;53.850;10.662;2022-11-23T00:07:49;100002.22;;;1.73;100.00
64933;BME280;51446;53.850;10.662;2022-11-23T00:10:15;100011.81;;;1.76;100.00
64933;BME280;51446;53.850;10.662;2022-11-23T00:12:40;100007.03;;;1.87;100.00
64933;BME280;51446;53.850;10.662;2022-11-23T00:15:06;100004.41;;;1.85;100.00
64933;BME280;51446;53.850;10.662;2022-11-23T00:17:32;100011.75;;;1.75;100.00
64933;BME280;51446;53.850;10.662;2022-11-23T00:19:58;100002.50;;;1.81;100.00
64933;BME280;51446;53.850;10.662;2022-11-23T00:22:23;100012.75;;;1.78;100.00
64933;BME280;51446;53.850;10.662;2022-11-23T00:24:48;100011.13;;;1.80;100.00
64933;BME280;51446;53.850;10.662;2022-11-23T00:27:14;100011.34;;;1.86;100.00
64933;BME280;51446;53.850;10.662;2022-11-23T00:29:39;100010.28;;;1.81;100.00
64933;BME280;51446;53.850;10.662;2022-11-23T00:32:04;100008.94;;;1.91;100.00
64933;BME280;51446;53.850;10.662;2022-11-23T00:34:30;99999.94;;;1.81;100.00
64933;BME280;51446;53.850;10.662;2022-11-23T00:36:55;100007.03;;;1.87;100.00
64933;BME280;51446;53.850;10.662;2022-11-23T00:39:20;99999.34;;;1.88;100.00
64933;BME280;51446;53.850;10.662;2022-11-23T00:41:45;100000.19;;;1.87;100.00
64933;BME280;51446;53.850;10.662;2022-11-23T00:44:11;99992.47;;;1.89;100.00
64933;BME280;51446;53.850;10.662;2022-11-23T00:46:36;99994.22;;;1.90;100.00
64933;BME280;51446;53.850;10.662;2022-11-23T00:49:01;99994.38;;;1.93;100.00
64933;BME280;51446;53.850;10.662;2022-11-23T00:51:30;99993.00;;;1.80;100.00
64933;BME280;51446;53.850;10.662;2022-11-23T00:53:56;99996.16;;;1.96;100.00
64933;BME280;51446;53.850;10.662;2022-11-23T00:56:22;100001.00;;;1.86;100.00
64933;BME280;51446;53.850;10.662;2022-11-23T00:58:48;100003.09;;;1.97;100.00
64933;BME280;51446;53.850;10.662;2022-11-23T01:01:15;99998.03;;;2.00;100.00
64933;BME280;51446;53.850;10.662;2022-11-23T01:03:43;100004.03;;;1.99;100.00
64933;BME280;51446;53.850;10.662;2022-11-23T01:06:20;99998.63;;;1.93;100.00
64933;BME280;51446;53.850;10.662;2022-11-23T01:08:59;100006.56;;;1.97;100.00
64933;BME280;51446;53.850;10.662;2022-11-23T01:11:26;100005.09;;;2.04;100.00
64933;BME280;51446;53.850;10.662;2022-11-23T01:13:53;99998.41;;;2.09;100.00
64933;BME280;51446;53.850;10.662;2022-11-23T01:16:26;100008.50;;;2.03;100.00
64933;BME280;51446;53.850;10.662;2022-11-23T01:18:57;100010.22;;;2.02;100.00
64933;BME280;51446;53.850;10.662;2022-11-23T01:21:24;100008.59;;;2.06;100.00
64933;BME280;51446;53.850;10.662;2022-11-23T01:23:50;100007.84;;;2.08;100.00
64933;BME280;51446;53.850;10.662;2022-11-23T01:26:16;100006.03;;;2.06;100.00
64933;BME280;51446;53.850;10.662;2022-11-23T01:28:41;99999.97;;;2.05;100.00
64933;BME280;51446;53.850;10.662;2022-11-23T01:31:14;99998.34;;;2.07;100.00
64933;BME280;51446;53.850;10.662;2022-11-23T01:33:41;99993.03;;;2.04;100.00
64933;BME280;51446;53.850;10.662;2022-11-23T01:36:14;99994.44;;;2.19;100.00
64933;BME280;51446;53.850;10.662;2022-11-23T01:38:40;99998.63;;;2.15;100.00
64933;BME280;51446;53.850;10.662;2022-11-23T01:41:08;99993.25;;;2.09;100.00
64933;BME280;51446;53.850;10.662;2022-11-23T01:43:34;99998.09;;;2.24;100.00
64933;BME280;51446;53.850;10.662;2022-11-23T01:46:00;100003.03;;;2.18;100.00
64933;BME280;51446;53.850;10.662;2022-11-23T01:48:33;100001.09;;;2.12;100.00
64933;BME280;51446;53.850;10.662;2022-11-23T01:51:03;100006.16;;;2.09;100.00
64933;BME280;51446;53.850;10.662;2022-11-23T01:53:31;100010.50;;;2.10;100.00
64933;BME280;51446;53.850;10.662;2022-11-23T01:55:59;100004.41;;;2.08;100.00
64933;BME280;51446;53.850;10.662;2022-11-23T01:58:26;100008.69;;;2.07;100.00
64933;BME280;51446;53.850;10.662;2022-11-23T02:00:53;100010.28;;;2.04;100.00
64933;BME280;51446;53.850;10.662;2022-11-23T02:03:19;100012.75;;;2.23;100.00
64933;BME280;51446;53.850;10.662;2022-11-23T02:05:47;100003.25;;;2.24;100.00
64933;BME280;51446;53.850;10.662;2022-11-23T02:08:15;100004.25;;;2.28;100.00
64933;BME280;51446;53.850;10.662;2022-11-23T02:10:41;100008.81;;;2.11;100.00
64933;BME280;51446;53.850;10.662;2022-11-23T02:13:09;100005.91;;;2.25;100.00
64933;BME280;51446;53.850;10.662;2022-11-23T02:15:36;100009.91;;;2.17;100.00
64933;BME280;51446;53.850;10.662;2022-11-23T02:18:04;100004.63;;;2.14;100.00
64933;BME280;51446;53.850;10.662;2022-11-23T02:20:31;100005.94;;;2.27;100.00
64933;BME280;51446;53.850;10.662;2022-11-23T02:25:39;100004.59;;;2.37;100.00
64933;BME280;51446;53.850;10.662;2022-11-23T02:28:07;100011.53;;;2.38;100.00
64933;BME280;51446;53.850;10.662;2022-11-23T02:30:35;100014.66;;;2.29;100.00
64933;BME280;51446;53.850;10.662;2022-11-23T02:33:03;99992.75;;;2.19;100.00
64933;BME280;51446;53.850;10.662;2022-11-23T02:35:30;100009.69;;;2.11;100.00
64933;BME280;51446;53.850;10.662;2022-11-23T02:37:55;100013.34;;;2.16;100.00
64933;BME280;51446;53.850;10.662;2022-11-23T02:40:28;100011.78;;;2.21;100.00
64933;BME280;51446;53.850;10.662;2022-11-23T02:42:54;100005.69;;;2.19;100.00
64933;BME280;51446;53.850;10.662;2022-11-23T02:48:08;100003.19;;;2.22;100.00
64933;BME280;51446;53.850;10.662;2022-11-23T02:50:33;100009.63;;;2.10;100.00
64933;BME280;51446;53.850;10.662;2022-11-23T02:52:59;100010.81;;;2.18;100.00
64933;BME280;51446;53.850;10.662;2022-11-23T02:55:24;100009.94;;;2.19;100.00
64933;BME280;51446;53.850;10.662;2022-11-23T02:57:49;100010.97;;;2.22;100.00
64933;BME280;51446;53.850;10.662;2022-11-23T03:00:15;100006.44;;;2.17;100.00
64933;BME280;51446;53.850;10.662;2022-11-23T03:02:41;100007.50;;;2.22;100.00
64933;BME280;51446;53.850;10.662;2022-11-23T03:05:07;100003.25;;;2.24;100.00
64933;BME280;51446;53.850;10.662;2022-11-23T03:07:32;100002.03;;;2.14;100.00
64933;BME280;51446;53.850;10.662;2022-11-23T03:09:58;100006.81;;;2.28;100.00
64933;BME280;51446;53.850;10.662;2022-11-23T03:12:23;100009.59;;;2.32;100.00
64933;BME280;51446;53.850;10.662;2022-11-23T03:14:48;100006.66;;;2.23;100.00
64933;BME280;51446;53.850;10.662;2022-11-23T03:17:14;100009.34;;;2.26;100.00
64933;BME280;51446;53.850;10.662;2022-11-23T03:19:39;100013.59;;;2.24;100.00
64933;BME280;51446;53.850;10.662;2022-11-23T03:22:04;100012.91;;;2.28;100.00
64933;BME280;51446;53.850;10.662;2022-11-23T03:24:30;99998.22;;;2.04;100.00
64933;BME280;51446;53.850;10.662;2022-11-23T03:26:55;100005.94;;;2.27;100.00
64933;BME280;51446;53.850;10.662;2022-11-23T03:29:21;100006.38;;;2.38;100.00
64933;BME280;51446;53.850;10.662;2022-11-23T03:31:50;100010.63;;;2.37;100.00
64933;BME280;51446;53.850;10.662;2022-11-23T03:34:15;100018.94;;;2.29;100.00
64933;BME280;51446;53.850;10.662;2022-11-23T03:36:41;100015.97;;;2.18;100.00
64933;BME280;51446;53.850;10.662;2022-11-23T03:39:06;100019.06;;;2.32;100.00
64933;BME280;51446;53.850;10.662;2022-11-23T03:41:31;100015.66;;;2.33;100.00
64933;BME280;51446;53.850;10.662;2022-11-23T03:43:57;100014.59;;;2.52;100.00
64933;BME280;51446;53.850;10.662;2022-11-23T03:46:22;100006.69;;;2.47;100.00
64933;BME280;51446;53.850;10.662;2022-11-23T03:48:47;100007.50;;;2.46;100.00
64933;BME280;51446;53.850;10.662;2022-11-23T03:51:12;100002.06;;;2.38;100.00
64933;BME280;51446;53.850;10.662;2022-11-23T03:53:37;100011.34;;;2.57;100.00
64933;BME280;51446;53.850;10.662;2022-11-23T03:56:03;100012.69;;;2.46;100.00
64933;BME280;51446;53.850;10.662;2022-11-23T03:58:28;100008.56;;;2.51;100.00
64933;BME280;51446;53.850;10.662;2022-11-23T04:00:54;100010.13;;;2.48;100.00
64933;BME280;51446;53.850;10.662;2022-11-23T04:03:19;100002.31;;;2.46;100.00
64933;BME280;51446;53.850;10.662;2022-11-23T04:05:44;100004.69;;;2.64;100.00
64933;BME280;51446;53.850;10.662;2022-11-23T04:08:10;100001.16;;;2.62;100.00
64933;BME280;51446;53.850;10.662;2022-11-23T04:10:35;100000.34;;;2.63;100.00
64933;BME280;51446;53.850;10.662;2022-11-23T04:13:00;99993.34;;;2.60;100.00
64933;BME280;51446;53.850;10.662;2022-11-23T04:15:26;99994.19;;;2.59;100.00
64933;BME280;51446;53.850;10.662;2022-11-23T04:17:53;99995.94;;;2.60;100.00
64933;BME280;51446;53.850;10.662;2022-11-23T04:20:18;99991.72;;;2.63;100.00
64933;BME280;51446;53.850;10.662;2022-11-23T04:22:43;99992.81;;;2.45;100.00
64933;BME280;51446;53.850;10.662;2022-11-23T04:25:09;99998.72;;;2.65;100.00
64933;BME280;51446;53.850;10.662;2022-11-23T04:27:34;100002.97;;;2.65;100.00
64933;BME280;51446;53.850;10.662;2022-11-23T04:30:00;100004.53;;;2.59;100.00
64933;BME280;51446;53.850;10.662;2022-11-23T04:32:25;100006.13;;;2.56;100.00
64933;BME280;51446;53.850;10.662;2022-11-23T04:34:50;100003.22;;;2.71;100.00
64933;BME280;51446;53.850;10.662;2022-11-23T04:37:15;100003.84;;;2.64;100.00
64933;BME280;51446;53.850;10.662;2022-11-23T04:39:41;99996.16;;;2.67;100.00
64933;BME280;51446;53.850;10.662;2022-11-23T04:42:06;99991.03;;;2.68;100.00
64933;BME280;51446;53.850;10.662;2022-11-23T04:44:31;99992.72;;;2.68;100.00
64933;BME280;51446;53.850;10.662;2022-11-23T04:46:56;99991.00;;;2.67;100.00
64933;BME280;51446;53.850;10.662;2022-11-23T04:49:22;99999.94;;;2.76;100.00
64933;BME280;51446;53.850;10.662;2022-11-23T04:51:47;100004.28;;;2.77;100.00
64933;BME280;51446;53.850;10.662;2022-11-23T04:54:12;100000.63;;;2.71;100.00
64933;BME280;51446;53.850;10.662;2022-11-23T04:56:37;100000.13;;;2.81;100.00
64933;BME280;51446;53.850;10.662;2022-11-23T04:59:03;99998.44;;;2.83;100.00
64933;BME280;51446;53.850;10.662;2022-11-23T05:01:28;99998.84;;;2.94;100.00
64933;BME280;51446;53.850;10.662;2022-11-23T05:03:53;99996.97;;;2.90;100.00
64933;BME280;51446;53.850;10.662;2022-11-23T05:06:18;99996.47;;;2.76;100.00
64933;BME280;51446;53.850;10.662;2022-11-23T05:08:44;99989.75;;;2.81;100.00
64933;BME280;51446;53.850;10.662;2022-11-23T05:11:09;99996.81;;;2.85;100.00
64933;BME280;51446;53.850;10.662;2022-11-23T05:13:34;100000.31;;;2.87;100.00
64933;BME280;51446;53.850;10.662;2022-11-23T05:16:00;99991.50;;;2.82;100.00
64933;BME280;51446;53.850;10.662;2022-11-23T05:18:25;99995.59;;;2.75;100.00
64933;BME280;51446;53.850;10.662;2022-11-23T05:20:50;99987.06;;;2.78;100.00
64933;BME280;51446;53.850;10.662;2022-11-23T05:23:16;99992.25;;;2.78;100.00
64933;BME280;51446;53.850;10.662;2022-11-23T05:25:41;99992.34;;;2.81;100.00
64933;BME280;51446;53.850;10.662;2022-11-23T05:28:08;100002.00;;;2.85;100.00
64933;BME280;51446;53.850;10.662;2022-11-23T05:30:38;100008.75;;;2.82;100.00
64933;BME280;51446;53.850;10.662;2022-11-23T05:33:03;100003.00;;;2.90;100.00
64933;BME280;51446;53.850;10.662;2022-11-23T05:35:29;100001.03;;;2.83;100.00
64933;BME280;51446;53.850;10.662;2022-11-23T05:37:55;100007.38;;;2.91;100.00
64933;BME280;51446;53.850;10.662;2022-11-23T05:40:20;100005.41;;;2.84;100.00
64933;BME280;51446;53.850;10.662;2022-11-23T05:42:46;100008.38;;;2.97;100.00
64933;BME280;51446;53.850;10.662;2022-11-23T05:45:11;100007.66;;;3.01;100.00
64933;BME280;51446;53.850;10.662;2022-11-23T05:47:36;100000.94;;;3.06;100.00
64933;BME280;51446;53.850;10.662;2022-11-23T05:50:02;99997.72;;;3.13;100.00
64933;BME280;51446;53.850;10.662;2022-11-23T05:52:27;100009.34;;;2.99;100.00
64933;BME280;51446;53.850;10.662;2022-11-23T05:54:52;100008.72;;;3.06;100.00
64933;BME280;51446;53.850;10.662;2022-11-23T05:57:18;100006.41;;;2.89;100.00
64933;BME280;51446;53.850;10.662;2022-11-23T05:59:44;100011.97;;;3.00;100.00
64933;BME280;51446;53.850;10.662;2022-11-23T06:02:09;100001.91;;;3.09;100.00
64933;BME280;51446;53.850;10.662;2022-11-23T06:04:34;100005.59;;;3.16;100.00
64933;BME280;51446;53.850;10.662;2022-11-23T06:06:59;99997.69;;;3.11;100.00
64933;BME280;51446;53.850;10.662;2022-11-23T06:09:26;100003.94;;;3.18;100.00
64933;BME280;51446;53.850;10.662;2022-11-23T06:11:51;99999.78;;;3.23;100.00
64933;BME280;51446;53.850;10.662;2022-11-23T06:14:17;99998.66;;;3.15;100.00
64933;BME280;51446;53.850;10.662;2022-11-23T06:16:42;100000.31;;;3.13;100.00
64933;BME280;51446;53.850;10.662;2022-11-23T06:19:07;100003.88;;;3.17;100.00
64933;BME280;51446;53.850;10.662;2022-11-23T06:21:32;100000.66;;;3.24;100.00
64933;BME280;51446;53.850;10.662;2022-11-23T06:23:58;99997.09;;;3.20;100.00
64933;BME280;51446;53.850;10.662;2022-11-23T06:26:24;100014.56;;;3.26;100.00
64933;BME280;51446;53.850;10.662;2022-11-23T06:28:49;100006.69;;;3.23;100.00
64933;BME280;51446;53.850;10.662;2022-11-23T06:31:15;100004.97;;;3.23;100.00
64933;BME280;51446;53.850;10.662;2022-11-23T06:33:40;100015.38;;;3.25;100.00
64933;BME280;51446;53.850;10.662;2022-11-23T06:36:05;100013.28;;;3.13;100.00
64933;BME280;51446;53.850;10.662;2022-11-23T06:38:31;100012.47;;;3.14;100.00
64933;BME280;51446;53.850;10.662;2022-11-23T06:40:58;100020.00;;;3.34;100.00
64933;BME280;51446;53.850;10.662;2022-11-23T06:43:23;100008.38;;;3.22;100.00
64933;BME280;51446;53.850;10.662;2022-11-23T06:45:49;100021.75;;;3.35;100.00
64933;BME280;51446;53.850;10.662;2022-11-23T06:48:14;100015.81;;;3.37;100.00
64933;BME280;51446;53.850;10.662;2022-11-23T06:50:39;100019.34;;;3.41;100.00
64933;BME280;51446;53.850;10.662;2022-11-23T06:53:05;100037.53;;;3.42;100.00
64933;BME280;51446;53.850;10.662;2022-11-23T06:55:30;100025.50;;;3.43;100.00
64933;BME280;51446;53.850;10.662;2022-11-23T06:57:56;100021.81;;;3.36;100.00
64933;BME280;51446;53.850;10.662;2022-11-23T07:00:22;100028.59;;;3.33;100.00
64933;BME280;51446;53.850;10.662;2022-11-23T07:02:52;100027.91;;;3.38;100.00
64933;BME280;51446;53.850;10.662;2022-11-23T07:05:18;100028.22;;;3.47;100.00
64933;BME280;51446;53.850;10.662;2022-11-23T07:07:43;100021.22;;;3.45;100.00
64933;BME280;51446;53.850;10.662;2022-11-23T07:10:09;100028.94;;;3.43;100.00
64933;BME280;51446;53.850;10.662;2022-11-23T07:12:34;100034.19;;;3.45;100.00
64933;BME280;51446;53.850;10.662;2022-11-23T07:14:59;100032.31;;;3.41;100.00
64933;BME280;51446;53.850;10.662;2022-11-23T07:17:25;100040.56;;;3.55;100.00
64933;BME280;51446;53.850;10.662;2022-11-23T07:19:50;100038.00;;;3.56;100.00
64933;BME280;51446;53.850;10.662;2022-11-23T07:22:15;100041.41;;;3.55;100.00
64933;BME280;51446;53.850;10.662;2022-11-23T07:24:41;100042.25;;;3.54;100.00
64933;BME280;51446;53.850;10.662;2022-11-23T07:27:06;100043.09;;;3.53;100.00
64933;BME280;51446;53.850;10.662;2022-11-23T07:29:31;100052.38;;;3.46;100.00
64933;BME280;51446;53.850;10.662;2022-11-23T07:31:56;100053.75;;;3.62;100.00
64933;BME280;51446;53.850;10.662;2022-11-23T07:34:22;100058.56;;;3.50;100.00
64933;BME280;51446;53.850;10.662;2022-11-23T07:36:47;100058.69;;;3.55;100.00
64933;BME280;51446;53.850;10.662;2022-11-23T07:39:12;100044.84;;;3.54;100.00
64933;BME280;51446;53.850;10.662;2022-11-23T07:41:38;100046.94;;;3.39;100.00
64933;BME280;51446;53.850;10.662;2022-11-23T07:44:03;100045.75;;;3.55;100.00
64933;BME280;51446;53.850;10.662;2022-11-23T07:46:29;100051.59;;;3.49;100.00
64933;BME280;51446;53.850;10.662;2022-11-23T07:48:54;100048.19;;;3.50;100.00
64933;BME280;51446;53.850;10.662;2022-11-23T07:51:23;100045.78;;;3.56;100.00
64933;BME280;51446;53.850;10.662;2022-11-23T07:53:48;100045.28;;;3.41;100.00
64933;BME280;51446;53.850;10.662;2022-11-23T07:56:14;100050.78;;;3.50;100.00
64933;BME280;51446;53.850;10.662;2022-11-23T07:58:39;100056.66;;;3.72;100.00
64933;BME280;51446;53.850;10.662;2022-11-23T08:01:04;100060.03;;;3.69;100.00
64933;BME280;51446;53.850;10.662;2022-11-23T08:03:29;100064.66;;;3.79;100.00
64933;BME280;51446;53.850;10.662;2022-11-23T08:05:55;100065.06;;;3.64;100.00
64933;BME280;51446;53.850;10.662;2022-11-23T08:08:20;100063.97;;;3.85;100.00
64933;BME280;51446;53.850;10.662;2022-11-23T08:10:45;100067.53;;;3.89;100.00
64933;BME280;51446;53.850;10.662;2022-11-23T08:13:11;100071.75;;;3.85;100.00
64933;BME280;51446;53.850;10.662;2022-11-23T08:15:36;100069.13;;;3.84;100.00
64933;BME280;51446;53.850;10.662;2022-11-23T08:18:02;100071.06;;;3.91;100.00
64933;BME280;51446;53.850;10.662;2022-11-23T08:20:29;100070.16;;;3.90;100.00
64933;BME280;51446;53.850;10.662;2022-11-23T08:22:55;100067.06;;;4.01;100.00
64933;BME280;51446;53.850;10.662;2022-11-23T08:25:24;100074.63;;;3.94;100.00
64933;BME280;51446;53.850;10.662;2022-11-23T08:27:54;100073.28;;;4.07;100.00
64933;BME280;51446;53.850;10.662;2022-11-23T08:30:19;100078.44;;;4.06;100.00
64933;BME280;51446;53.850;10.662;2022-11-23T08:32:45;100073.75;;;3.94;100.00
64933;BME280;51446;53.850;10.662;2022-11-23T08:35:10;100075.28;;;3.87;100.00
64933;BME280;51446;53.850;10.662;2022-11-23T08:37:35;100071.91;;;3.90;100.00
64933;BME280;51446;53.850;10.662;2022-11-23T08:40:01;100064.34;;;3.97;100.00
64933;BME280;51446;53.850;10.662;2022-11-23T08:42:26;100065.78;;;3.88;100.00
64933;BME280;51446;53.850;10.662;2022-11-23T08:44:51;100067.53;;;3.89;100.00
64933;BME280;51446;53.850;10.662;2022-11-23T08:47:16;100069.41;;;3.93;100.00
64933;BME280;51446;53.850;10.662;2022-11-23T08:49:43;100073.66;;;3.91;100.00
64933;BME280;51446;53.850;10.662;2022-11-23T08:52:08;100070.44;;;3.98;100.00
64933;BME280;51446;53.850;10.662;2022-11-23T08:54:34;100078.16;;;3.96;100.00
64933;BME280;51446;53.850;10.662;2022-11-23T08:56:59;100079.81;;;3.94;100.00
64933;BME280;51446;53.850;10.662;2022-11-23T08:59:25;100075.53;;;3.95;100.00
64933;BME280;51446;53.850;10.662;2022-11-23T09:01:50;100076.22;;;3.89;100.00
64933;BME280;51446;53.850;10.662;2022-11-23T09:04:15;100078.72;;;3.86;100.00
64933;BME280;51446;53.850;10.662;2022-11-23T09:06:40;100076.94;;;3.85;100.00
64933;BME280;51446;53.850;10.662;2022-11-23T09:09:06;100084.91;;;3.91;100.00
64933;BME280;51446;53.850;10.662;2022-11-23T09:11:31;100081.22;;;3.85;100.00
64933;BME280;51446;53.850;10.662;2022-11-23T09:13:56;100076.41;;;3.95;100.00
64933;BME280;51446;53.850;10.662;2022-11-23T09:16:22;100068.16;;;4.09;100.00
64933;BME280;51446;53.850;10.662;2022-11-23T09:18:47;100070.63;;;4.33;100.00
64933;BME280;51446;53.850;10.662;2022-11-23T09:21:15;100074.88;;;4.60;100.00
64933;BME280;51446;53.850;10.662;2022-11-23T09:23:40;100077.78;;;4.72;100.00
64933;BME280;51446;53.850;10.662;2022-11-23T09:26:06;100065.59;;;5.00;100.00
64933;BME280;51446;53.850;10.662;2022-11-23T09:28:31;100061.84;;;5.24;100.00
64933;BME280;51446;53.850;10.662;2022-11-23T09:30:57;100065.88;;;5.46;100.00
64933;BME280;51446;53.850;10.662;2022-11-23T09:33:23;100066.47;;;5.35;100.00
64933;BME280;51446;53.850;10.662;2022-11-23T09:36:00;100070.78;;;5.33;100.00
64933;BME280;51446;53.850;10.662;2022-11-23T09:38:26;100077.94;;;5.42;100.00
64933;BME280;51446;53.850;10.662;2022-11-23T09:43:47;100075.44;;;8.11;97.48
64933;BME280;51446;53.850;10.662;2022-11-23T09:51:35;100075.41;;;8.08;87.40
64933;BME280;51446;53.850;10.662;2022-11-23T09:54:15;100085.16;;;8.84;87.92
64933;BME280;51446;53.850;10.662;2022-11-23T09:56:47;100084.81;;;8.55;85.63
64933;BME280;51446;53.850;10.662;2022-11-23T10:01:59;100089.44;;;7.09;92.60
64933;BME280;51446;53.850;10.662;2022-11-23T10:04:25;100085.72;;;6.96;94.80
64933;BME280;51446;53.850;10.662;2022-11-23T10:06:57;100089.38;;;7.06;93.78
64933;BME280;51446;53.850;10.662;2022-11-23T10:12:25;100084.72;;;6.91;95.09
64933;BME280;51446;53.850;10.662;2022-11-23T10:15:17;100085.88;;;6.61;97.36
64933;BME280;51446;53.850;10.662;2022-11-23T10:20:42;100079.00;;;7.58;95.71
64933;BME280;51446;53.850;10.662;2022-11-23T10:23:17;100070.91;;;9.38;87.77
64933;BME280;51446;53.850;10.662;2022-11-23T10:25:50;100072.25;;;10.01;79.53
64933;BME280;51446;53.850;10.662;2022-11-23T10:28:19;100082.59;;;9.82;78.05
64933;BME280;51446;53.850;10.662;2022-11-23T10:30:53;100082.31;;;8.65;82.86
64933;BME280;51446;53.850;10.662;2022-11-23T10:33:29;100086.63;;;8.62;86.82
64933;BME280;51446;53.850;10.662;2022-11-23T10:35:55;100095.56;;;8.18;86.27
64933;BME280;51446;53.850;10.662;2022-11-23T10:38:21;100095.44;;;7.52;90.13
64933;BME280;51446;53.850;10.662;2022-11-23T10:41:08;100090.34;;;6.68;95.58
64933;BME280;51446;53.850;10.662;2022-11-23T10:48:48;100100.09;;;5.98;100.00
64933;BME280;51446;53.850;10.662;2022-11-23T10:51:20;100091.97;;;5.84;100.00
64933;BME280;51446;53.850;10.662;2022-11-23T10:54:24;100095.25;;;5.77;100.00
64933;BME280;51446;53.850;10.662;2022-11-23T10:56:51;100088.63;;;5.54;100.00
64933;BME280;51446;53.850;10.662;2022-11-23T10:59:35;100109.56;;;5.59;100.00
64933;BME280;51446;53.850;10.662;2022-11-23T11:02:16;100107.16;;;5.67;100.00
64933;BME280;51446;53.850;10.662;2022-11-23T11:04:43;100105.38;;;5.66;100.00
64933;BME280;51446;53.850;10.662;2022-11-23T11:07:27;100102.94;;;5.72;100.00
64933;BME280;51446;53.850;10.662;2022-11-23T11:09:58;100102.97;;;5.73;100.00
64933;BME280;51446;53.850;10.662;2022-11-23T11:12:26;100100.19;;;5.66;100.00
64933;BME280;51446;53.850;10.662;2022-11-23T11:17:34;100097.25;;;5.88;100.00
64933;BME280;51446;53.850;10.662;2022-11-23T11:20:22;100105.34;;;5.64;100.00
64933;BME280;51446;53.850;10.662;2022-11-23T11:22:48;100090.03;;;5.77;100.00
64933;BME280;51446;53.850;10.662;2022-11-23T11:25:32;100101.28;;;5.76;100.00
64933;BME280;51446;53.850;10.662;2022-11-23T11:27:59;100104.34;;;5.94;100.00
64933;BME280;51446;53.850;10.662;2022-11-23T11:30:31;100087.03;;;5.96;100.00
64933;BME280;51446;53.850;10.662;2022-11-23T11:33:10;100101.97;;;6.03;100.00
64933;BME280;51446;53.850;10.662;2022-11-23T11:35:43;100089.41;;;6.23;100.00
64933;BME280;51446;53.850;10.662;2022-11-23T11:38:21;100091.69;;;6.08;100.00
64933;BME280;51446;53.850;10.662;2022-11-23T11:40:50;100087.84;;;6.30;100.00
64933;BME280;51446;53.850;10.662;2022-11-23T11:43:20;100089.44;;;6.25;100.00
64933;BME280;51446;53.850;10.662;2022-11-23T11:45:52;100085.13;;;6.25;100.00
64933;BME280;51446;53.850;10.662;2022-11-23T11:48:22;100089.31;;;6.19;100.00
64933;BME280;51446;53.850;10.662;2022-11-23T11:50:52;100093.59;;;6.15;100.00
64933;BME280;51446;53.850;10.662;2022-11-23T11:53:32;100088.19;;;6.07;100.00
64933;BME280;51446;53.850;10.662;2022-11-23T11:56:03;100079.63;;;6.13;100.00
64933;BME280;51446;53.850;10.662;2022-11-23T11:58:36;100098.66;;;6.11;100.00
64933;BME280;51446;53.850;10.662;2022-11-23T12:04:11;100089.22;;;6.14;100.00
64933;BME280;51446;53.850;10.662;2022-11-23T12:06:46;100090.31;;;6.24;100.00
64933;BME280;51446;53.850;10.662;2022-11-23T12:09:19;100092.72;;;6.16;100.00
64933;BME280;51446;53.850;10.662;2022-11-23T12:11:46;100092.06;;;6.27;100.00
64933;BME280;51446;53.850;10.662;2022-11-23T12:14:13;100087.66;;;6.21;100.00
64933;BME280;51446;53.850;10.662;2022-11-23T12:16:52;100087.53;;;6.18;100.00
64933;BME280;51446;53.850;10.662;2022-11-23T12:20:03;100087.09;;;6.36;100.00
64933;BME280;51446;53.850;10.662;2022-11-23T12:22:38;100087.56;;;6.59;100.00
64933;BME280;51446;53.850;10.662;2022-11-23T12:25:24;100089.38;;;6.62;100.00
64933;BME280;51446;53.850;10.662;2022-11-23T12:28:12;100095.34;;;6.56;100.00
64933;BME280;51446;53.850;10.662;2022-11-23T12:30:57;100092.69;;;6.54;100.00
64933;BME280;51446;53.850;10.662;2022-11-23T12:34:14;100080.59;;;6.58;100.00
64933;BME280;51446;53.850;10.662;2022-11-23T12:42:44;100089.16;;;6.52;100.00
64933;BME280;51446;53.850;10.662;2022-11-23T12:45:19;100092.50;;;6.47;100.00
64933;BME280;51446;53.850;10.662;2022-11-23T12:47:58;100095.31;;;6.54;100.00
64933;BME280;51446;53.850;10.662;2022-11-23T12:53:57;100101.84;;;6.35;100.00
64933;BME280;51446;53.850;10.662;2022-11-23T12:56:57;100091.75;;;6.51;100.00
64933;BME280;51446;53.850;10.662;2022-11-23T12:59:32;100093.09;;;6.33;100.00
64933;BME280;51446;53.850;10.662;2022-11-23T13:02:02;100093.41;;;6.47;100.00
64933;BME280;51446;53.850;10.662;2022-11-23T13:04:49;100084.97;;;6.59;100.00
64933;BME280;51446;53.850;10.662;2022-11-23T13:07:34;100081.63;;;6.65;100.00
64933;BME280;51446;53.850;10.662;2022-11-23T13:13:02;100076.38;;;6.63;100.00
64933;BME280;51446;53.850;10.662;2022-11-23T13:18:43;100074.19;;;6.85;100.00
64933;BME280;51446;53.850;10.662;2022-11-23T13:23:51;100072.53;;;6.90;98.84
64933;BME280;51446;53.850;10.662;2022-11-23T13:26:19;100069.63;;;6.73;99.46
64933;BME280;51446;53.850;10.662;2022-11-23T13:28:46;100069.28;;;6.56;100.00
64933;BME280;51446;53.850;10.662;2022-11-23T13:33:42;100058.09;;;6.62;100.00
64933;BME280;51446;53.850;10.662;2022-11-23T13:36:15;100056.25;;;6.56;100.00
64933;BME280;51446;53.850;10.662;2022-11-23T13:38:58;100068.78;;;6.31;100.00
64933;BME280;51446;53.850;10.662;2022-11-23T13:44:24;100072.75;;;6.56;100.00